sensor_id;sensor_type;location;lat;lon;timestamp;P1;durP1;ratioP1;P2;durP2;ratioP2
18999;SDS011;9633;50.980;13.850;2023-08-30T00:01:00;3.10;;;2.70;;
18999;SDS011;9633;50.980;13.850;2023-08-30T00:02:32;3.87;;;2.93;;
18999;SDS011;9633;50.980;13.850;2023-08-30T00:04:05;3.93;;;2.50;;
18999;SDS011;9633;50.980;13.850;2023-08-30T00:05:39;3.50;;;2.40;;
18999;SDS011;9633;50.980;13.850;2023-08-30T00:07:12;2.50;;;2.30;;
18999;SDS011;9633;50.980;13.850;2023-08-30T00:08:45;2.50;;;2.30;;
18999;SDS011;9633;50.980;13.850;2023-08-30T00:10:18;4.73;;;2.67;;
18999;SDS011;9633;50.980;13.850;2023-08-30T00:11:50;3.27;;;2.57;;
18999;SDS011;9633;50.980;13.850;2023-08-30T00:13:23;4.17;;;2.23;;
18999;SDS011;9633;50.980;13.850;2023-08-30T00:14:55;2.50;;;2.20;;
18999;SDS011;9633;50.980;13.850;2023-08-30T00:16:29;2.40;;;2.20;;
18999;SDS011;9633;50.980;13.850;2023-08-30T00:18:01;2.23;;;1.90;;
18999;SDS011;9633;50.980;13.850;2023-08-30T00:19:35;2.60;;;2.40;;
18999;SDS011;9633;50.980;13.850;2023-08-30T00:21:09;2.33;;;1.90;;
18999;SDS011;9633;50.980;13.850;2023-08-30T00:22:42;2.23;;;1.80;;
18999;SDS011;9633;50.980;13.850;2023-08-30T00:24:14;2.23;;;2.03;;
18999;SDS011;9633;50.980;13.850;2023-08-30T00:25:48;2.10;;;1.90;;
18999;SDS011;9633;50.980;13.850;2023-08-30T00:27:20;1.87;;;1.77;;
18999;SDS011;9633;50.980;13.850;2023-08-30T00:28:53;1.70;;;1.60;;
18999;SDS011;9633;50.980;13.850;2023-08-30T00:30:26;3.60;;;2.00;;
18999;SDS011;9633;50.980;13.850;2023-08-30T00:31:59;3.00;;;1.90;;
18999;SDS011;9633;50.980;13.850;2023-08-30T00:33:31;3.07;;;1.80;;
18999;SDS011;9633;50.980;13.850;2023-08-30T00:35:05;3.83;;;1.97;;
18999;SDS011;9633;50.980;13.850;2023-08-30T00:36:39;2.90;;;1.70;;
18999;SDS011;9633;50.980;13.850;2023-08-30T00:38:13;2.20;;;1.73;;
18999;SDS011;9633;50.980;13.850;2023-08-30T00:39:45;2.33;;;2.13;;
18999;SDS011;9633;50.980;13.850;2023-08-30T00:41:18;1.93;;;1.70;;
18999;SDS011;9633;50.980;13.850;2023-08-30T00:42:51;3.43;;;2.13;;
18999;SDS011;9633;50.980;13.850;2023-08-30T00:44:24;2.13;;;1.90;;
18999;SDS011;9633;50.980;13.850;2023-08-30T00:45:56;3.13;;;1.97;;
18999;SDS011;9633;50.980;13.850;2023-08-30T00:47:30;5.30;;;1.73;;
18999;SDS011;9633;50.980;13.850;2023-08-30T00:49:02;1.70;;;1.60;;
18999;SDS011;9633;50.980;13.850;2023-08-30T00:50:36;3.30;;;1.80;;
18999;SDS011;9633;50.980;13.850;2023-08-30T00:52:10;4.00;;;1.87;;
18999;SDS011;9633;50.980;13.850;2023-08-30T00:53:43;2.50;;;1.60;;
18999;SDS011;9633;50.980;13.850;2023-08-30T00:55:16;1.97;;;1.87;;
18999;SDS011;9633;50.980;13.850;2023-08-30T00:56:50;1.83;;;1.73;;
18999;SDS011;9633;50.980;13.850;2023-08-30T00:58:23;3.93;;;2.03;;
18999;SDS011;9633;50.980;13.850;2023-08-30T00:59:58;2.00;;;1.70;;
18999;SDS011;9633;50.980;13.850;2023-08-30T01:01:30;1.87;;;1.60;;
18999;SDS011;9633;50.980;13.850;2023-08-30T01:03:04;1.93;;;1.77;;
18999;SDS011;9633;50.980;13.850;2023-08-30T01:04:38;1.90;;;1.77;;
18999;SDS011;9633;50.980;13.850;2023-08-30T01:06:11;2.50;;;1.70;;
18999;SDS011;9633;50.980;13.850;2023-08-30T01:07:46;2.60;;;2.13;;
18999;SDS011;9633;50.980;13.850;2023-08-30T01:09:19;2.73;;;1.80;;
18999;SDS011;9633;50.980;13.850;2023-08-30T01:10:55;2.57;;;2.07;;
18999;SDS011;9633;50.980;13.850;2023-08-30T01:12:33;2.03;;;1.83;;
18999;SDS011;9633;50.980;13.850;2023-08-30T01:14:11;2.00;;;1.90;;
18999;SDS011;9633;50.980;13.850;2023-08-30T01:15:47;2.03;;;1.73;;
18999;SDS011;9633;50.980;13.850;2023-08-30T01:17:22;2.73;;;2.00;;
18999;SDS011;9633;50.980;13.850;2023-08-30T01:18:57;3.83;;;1.90;;
18999;SDS011;9633;50.980;13.850;2023-08-30T01:20:31;2.77;;;1.90;;
18999;SDS011;9633;50.980;13.850;2023-08-30T01:22:09;2.17;;;1.97;;
18999;SDS011;9633;50.980;13.850;2023-08-30T01:23:51;2.30;;;2.10;;
18999;SDS011;9633;50.980;13.850;2023-08-30T01:25:32;2.70;;;2.10;;
18999;SDS011;9633;50.980;13.850;2023-08-30T01:27:15;2.43;;;2.10;;
18999;SDS011;9633;50.980;13.850;2023-08-30T01:28:50;2.13;;;1.93;;
18999;SDS011;9633;50.980;13.850;2023-08-30T01:30:24;4.43;;;2.27;;
18999;SDS011;9633;50.980;13.850;2023-08-30T01:31:59;2.17;;;1.97;;
18999;SDS011;9633;50.980;13.850;2023-08-30T01:33:32;2.43;;;1.87;;
18999;SDS011;9633;50.980;13.850;2023-08-30T01:35:06;2.23;;;1.90;;
18999;SDS011;9633;50.980;13.850;2023-08-30T01:36:39;2.23;;;1.90;;
18999;SDS011;9633;50.980;13.850;2023-08-30T01:38:14;2.70;;;2.17;;
18999;SDS011;9633;50.980;13.850;2023-08-30T01:39:48;2.13;;;2.00;;
18999;SDS011;9633;50.980;13.850;2023-08-30T01:41:21;3.13;;;2.30;;
18999;SDS011;9633;50.980;13.850;2023-08-30T01:42:57;3.60;;;2.20;;
18999;SDS011;9633;50.980;13.850;2023-08-30T01:44:30;4.53;;;2.33;;
18999;SDS011;9633;50.980;13.850;2023-08-30T01:46:04;2.50;;;2.30;;
18999;SDS011;9633;50.980;13.850;2023-08-30T01:47:38;2.07;;;1.87;;
18999;SDS011;9633;50.980;13.850;2023-08-30T01:49:13;3.50;;;2.10;;
18999;SDS011;9633;50.980;13.850;2023-08-30T01:50:47;3.00;;;2.17;;
18999;SDS011;9633;50.980;13.850;2023-08-30T01:52:20;3.07;;;2.33;;
18999;SDS011;9633;50.980;13.850;2023-08-30T01:53:55;2.90;;;2.43;;
18999;SDS011;9633;50.980;13.850;2023-08-30T01:55:28;2.73;;;2.47;;
18999;SDS011;9633;50.980;13.850;2023-08-30T01:57:02;2.93;;;2.40;;
18999;SDS011;9633;50.980;13.850;2023-08-30T01:58:36;2.83;;;2.33;;
18999;SDS011;9633;50.980;13.850;2023-08-30T02:00:10;3.27;;;2.57;;
18999;SDS011;9633;50.980;13.850;2023-08-30T02:01:50;4.30;;;2.53;;
18999;SDS011;9633;50.980;13.850;2023-08-30T02:03:25;3.87;;;2.43;;
18999;SDS011;9633;50.980;13.850;2023-08-30T02:04:57;2.97;;;2.70;;
18999;SDS011;9633;50.980;13.850;2023-08-30T02:06:31;3.77;;;3.00;;
18999;SDS011;9633;50.980;13.850;2023-08-30T02:08:09;3.00;;;2.80;;
18999;SDS011;9633;50.980;13.850;2023-08-30T02:09:48;3.67;;;3.30;;
18999;SDS011;9633;50.980;13.850;2023-08-30T02:11:26;3.50;;;3.20;;
18999;SDS011;9633;50.980;13.850;2023-08-30T02:13:00;4.33;;;3.70;;
18999;SDS011;9633;50.980;13.850;2023-08-30T02:14:36;5.07;;;3.80;;
18999;SDS011;9633;50.980;13.850;2023-08-30T02:16:11;5.37;;;3.50;;
18999;SDS011;9633;50.980;13.850;2023-08-30T02:17:46;4.20;;;3.80;;
18999;SDS011;9633;50.980;13.850;2023-08-30T02:19:21;6.17;;;3.67;;
18999;SDS011;9633;50.980;13.850;2023-08-30T02:20:55;4.47;;;4.07;;
18999;SDS011;9633;50.980;13.850;2023-08-30T02:22:28;4.43;;;4.03;;
18999;SDS011;9633;50.980;13.850;2023-08-30T02:24:03;4.60;;;4.20;;
18999;SDS011;9633;50.980;13.850;2023-08-30T02:25:36;6.13;;;4.57;;
18999;SDS011;9633;50.980;13.850;2023-08-30T02:27:09;5.67;;;4.00;;
18999;SDS011;9633;50.980;13.850;2023-08-30T02:28:44;4.90;;;4.50;;
18999;SDS011;9633;50.980;13.850;2023-08-30T02:30:17;5.10;;;4.70;;
18999;SDS011;9633;50.980;13.850;2023-08-30T02:31:51;5.13;;;4.63;;
18999;SDS011;9633;50.980;13.850;2023-08-30T02:33:25;5.37;;;4.53;;
18999;SDS011;9633;50.980;13.850;2023-08-30T02:34:57;4.97;;;4.53;;
18999;SDS011;9633;50.980;13.850;2023-08-30T02:36:31;8.87;;;5.33;;
18999;SDS011;9633;50.980;13.850;2023-08-30T02:38:04;5.63;;;5.07;;
18999;SDS011;9633;50.980;13.850;2023-08-30T02:39:37;6.00;;;5.40;;
18999;SDS011;9633;50.980;13.850;2023-08-30T02:41:11;6.33;;;5.70;;
18999;SDS011;9633;50.980;13.850;2023-08-30T02:42:44;5.50;;;5.00;;
18999;SDS011;9633;50.980;13.850;2023-08-30T02:44:17;5.40;;;4.90;;
18999;SDS011;9633;50.980;13.850;2023-08-30T02:45:51;5.90;;;5.30;;
18999;SDS011;9633;50.980;13.850;2023-08-30T02:47:24;5.30;;;4.57;;
18999;SDS011;9633;50.980;13.850;2023-08-30T02:48:57;5.70;;;4.63;;
18999;SDS011;9633;50.980;13.850;2023-08-30T02:50:30;5.77;;;5.10;;
18999;SDS011;9633;50.980;13.850;2023-08-30T02:52:02;5.93;;;5.33;;
18999;SDS011;9633;50.980;13.850;2023-08-30T02:53:36;4.97;;;4.47;;
18999;SDS011;9633;50.980;13.850;2023-08-30T02:55:09;5.93;;;4.30;;
18999;SDS011;9633;50.980;13.850;2023-08-30T02:56:42;6.00;;;5.40;;
18999;SDS011;9633;50.980;13.850;2023-08-30T02:58:16;5.60;;;5.10;;
18999;SDS011;9633;50.980;13.850;2023-08-30T02:59:48;5.43;;;4.93;;
18999;SDS011;9633;50.980;13.850;2023-08-30T03:01:23;6.57;;;4.87;;
18999;SDS011;9633;50.980;13.850;2023-08-30T03:02:56;5.40;;;4.90;;
18999;SDS011;9633;50.980;13.850;2023-08-30T03:04:29;5.17;;;4.67;;
18999;SDS011;9633;50.980;13.850;2023-08-30T03:06:02;5.40;;;4.90;;
18999;SDS011;9633;50.980;13.850;2023-08-30T03:07:35;7.10;;;4.30;;
18999;SDS011;9633;50.980;13.850;2023-08-30T03:09:08;4.80;;;4.40;;
18999;SDS011;9633;50.980;13.850;2023-08-30T03:10:41;5.40;;;4.90;;
18999;SDS011;9633;50.980;13.850;2023-08-30T03:12:14;7.73;;;4.80;;
18999;SDS011;9633;50.980;13.850;2023-08-30T03:13:49;5.50;;;4.77;;
18999;SDS011;9633;50.980;13.850;2023-08-30T03:15:23;5.73;;;4.90;;
18999;SDS011;9633;50.980;13.850;2023-08-30T03:16:57;5.13;;;4.23;;
18999;SDS011;9633;50.980;13.850;2023-08-30T03:18:30;5.30;;;4.80;;
18999;SDS011;9633;50.980;13.850;2023-08-30T03:20:05;5.27;;;4.73;;
18999;SDS011;9633;50.980;13.850;2023-08-30T03:21:39;5.93;;;4.60;;
18999;SDS011;9633;50.980;13.850;2023-08-30T03:23:11;5.80;;;4.53;;
18999;SDS011;9633;50.980;13.850;2023-08-30T03:24:45;5.67;;;5.07;;
18999;SDS011;9633;50.980;13.850;2023-08-30T03:26:17;4.70;;;4.30;;
18999;SDS011;9633;50.980;13.850;2023-08-30T03:27:50;5.70;;;4.97;;
18999;SDS011;9633;50.980;13.850;2023-08-30T03:29:22;5.00;;;4.50;;
18999;SDS011;9633;50.980;13.850;2023-08-30T03:30:55;5.10;;;4.60;;
18999;SDS011;9633;50.980;13.850;2023-08-30T03:32:30;4.70;;;4.30;;
18999;SDS011;9633;50.980;13.850;2023-08-30T03:34:04;4.77;;;4.33;;
18999;SDS011;9633;50.980;13.850;2023-08-30T03:35:36;4.90;;;4.23;;
18999;SDS011;9633;50.980;13.850;2023-08-30T03:37:10;4.97;;;4.27;;
18999;SDS011;9633;50.980;13.850;2023-08-30T03:38:42;6.03;;;4.93;;
18999;SDS011;9633;50.980;13.850;2023-08-30T03:40:16;5.10;;;4.60;;
18999;SDS011;9633;50.980;13.850;2023-08-30T03:41:49;7.33;;;4.80;;
18999;SDS011;9633;50.980;13.850;2023-08-30T03:43:21;5.30;;;4.57;;
18999;SDS011;9633;50.980;13.850;2023-08-30T03:44:55;5.30;;;4.80;;
18999;SDS011;9633;50.980;13.850;2023-08-30T03:46:28;9.17;;;4.77;;
18999;SDS011;9633;50.980;13.850;2023-08-30T03:48:02;6.47;;;5.00;;
18999;SDS011;9633;50.980;13.850;2023-08-30T03:49:36;6.47;;;5.50;;
18999;SDS011;9633;50.980;13.850;2023-08-30T03:51:08;6.57;;;5.37;;
18999;SDS011;9633;50.980;13.850;2023-08-30T03:52:41;7.13;;;5.10;;
18999;SDS011;9633;50.980;13.850;2023-08-30T03:54:13;5.53;;;4.93;;
18999;SDS011;9633;50.980;13.850;2023-08-30T03:55:47;5.47;;;4.97;;
18999;SDS011;9633;50.980;13.850;2023-08-30T03:57:21;5.60;;;4.97;;
18999;SDS011;9633;50.980;13.850;2023-08-30T03:58:54;7.00;;;5.07;;
18999;SDS011;9633;50.980;13.850;2023-08-30T04:00:27;6.60;;;5.17;;
18999;SDS011;9633;50.980;13.850;2023-08-30T04:02:00;5.43;;;4.80;;
18999;SDS011;9633;50.980;13.850;2023-08-30T04:03:34;6.97;;;5.50;;
18999;SDS011;9633;50.980;13.850;2023-08-30T04:05:07;7.60;;;5.10;;
18999;SDS011;9633;50.980;13.850;2023-08-30T04:06:42;6.53;;;4.97;;
18999;SDS011;9633;50.980;13.850;2023-08-30T04:08:15;8.03;;;4.93;;
18999;SDS011;9633;50.980;13.850;2023-08-30T04:09:49;6.17;;;4.67;;
18999;SDS011;9633;50.980;13.850;2023-08-30T04:11:21;4.80;;;4.40;;
18999;SDS011;9633;50.980;13.850;2023-08-30T04:12:55;9.00;;;4.60;;
18999;SDS011;9633;50.980;13.850;2023-08-30T04:14:27;5.00;;;4.50;;
18999;SDS011;9633;50.980;13.850;2023-08-30T04:16:01;6.87;;;4.67;;
18999;SDS011;9633;50.980;13.850;2023-08-30T04:17:34;9.17;;;4.80;;
18999;SDS011;9633;50.980;13.850;2023-08-30T04:19:09;5.60;;;5.00;;
18999;SDS011;9633;50.980;13.850;2023-08-30T04:20:43;7.23;;;5.10;;
18999;SDS011;9633;50.980;13.850;2023-08-30T04:22:16;5.37;;;4.80;;
18999;SDS011;9633;50.980;13.850;2023-08-30T04:23:50;6.67;;;5.00;;
18999;SDS011;9633;50.980;13.850;2023-08-30T04:25:24;5.10;;;4.60;;
18999;SDS011;9633;50.980;13.850;2023-08-30T04:26:57;6.77;;;4.90;;
18999;SDS011;9633;50.980;13.850;2023-08-30T04:28:30;6.10;;;4.77;;
18999;SDS011;9633;50.980;13.850;2023-08-30T04:30:02;5.40;;;4.63;;
18999;SDS011;9633;50.980;13.850;2023-08-30T04:31:36;5.73;;;4.73;;
18999;SDS011;9633;50.980;13.850;2023-08-30T04:33:09;5.73;;;4.67;;
18999;SDS011;9633;50.980;13.850;2023-08-30T04:34:44;5.70;;;4.27;;
18999;SDS011;9633;50.980;13.850;2023-08-30T04:36:18;5.73;;;4.27;;
18999;SDS011;9633;50.980;13.850;2023-08-30T04:37:50;5.90;;;4.47;;
18999;SDS011;9633;50.980;13.850;2023-08-30T04:39:24;6.00;;;4.73;;
18999;SDS011;9633;50.980;13.850;2023-08-30T04:40:57;4.97;;;4.47;;
18999;SDS011;9633;50.980;13.850;2023-08-30T04:42:31;5.63;;;4.20;;
18999;SDS011;9633;50.980;13.850;2023-08-30T04:44:04;4.87;;;4.30;;
18999;SDS011;9633;50.980;13.850;2023-08-30T04:45:36;5.40;;;4.40;;
18999;SDS011;9633;50.980;13.850;2023-08-30T04:47:11;6.30;;;4.43;;
18999;SDS011;9633;50.980;13.850;2023-08-30T04:48:43;6.37;;;4.80;;
18999;SDS011;9633;50.980;13.850;2023-08-30T04:50:19;5.60;;;4.50;;
18999;SDS011;9633;50.980;13.850;2023-08-30T04:51:51;5.30;;;4.80;;
18999;SDS011;9633;50.980;13.850;2023-08-30T04:53:24;4.80;;;4.30;;
18999;SDS011;9633;50.980;13.850;2023-08-30T04:54:57;5.20;;;4.60;;
18999;SDS011;9633;50.980;13.850;2023-08-30T04:56:31;5.07;;;4.40;;
18999;SDS011;9633;50.980;13.850;2023-08-30T04:58:05;4.93;;;4.30;;
18999;SDS011;9633;50.980;13.850;2023-08-30T04:59:38;4.77;;;4.20;;
18999;SDS011;9633;50.980;13.850;2023-08-30T05:01:12;6.00;;;4.10;;
18999;SDS011;9633;50.980;13.850;2023-08-30T05:02:49;4.87;;;3.90;;
18999;SDS011;9633;50.980;13.850;2023-08-30T05:04:23;4.73;;;3.90;;
18999;SDS011;9633;50.980;13.850;2023-08-30T05:05:58;5.53;;;3.70;;
18999;SDS011;9633;50.980;13.850;2023-08-30T05:07:31;4.50;;;3.93;;
18999;SDS011;9633;50.980;13.850;2023-08-30T05:09:06;4.67;;;3.97;;
18999;SDS011;9633;50.980;13.850;2023-08-30T05:10:40;4.60;;;3.87;;
18999;SDS011;9633;50.980;13.850;2023-08-30T05:12:12;5.13;;;4.00;;
18999;SDS011;9633;50.980;13.850;2023-08-30T05:13:45;4.27;;;3.53;;
18999;SDS011;9633;50.980;13.850;2023-08-30T05:15:18;4.90;;;3.73;;
18999;SDS011;9633;50.980;13.850;2023-08-30T05:16:51;5.07;;;3.80;;
18999;SDS011;9633;50.980;13.850;2023-08-30T05:18:24;4.53;;;3.90;;
18999;SDS011;9633;50.980;13.850;2023-08-30T05:19:57;4.63;;;3.87;;
18999;SDS011;9633;50.980;13.850;2023-08-30T05:21:32;4.20;;;3.80;;
18999;SDS011;9633;50.980;13.850;2023-08-30T05:23:07;4.37;;;3.80;;
18999;SDS011;9633;50.980;13.850;2023-08-30T05:24:40;4.77;;;3.30;;
18999;SDS011;9633;50.980;13.850;2023-08-30T05:26:14;4.57;;;3.70;;
18999;SDS011;9633;50.980;13.850;2023-08-30T05:27:48;5.73;;;3.60;;
18999;SDS011;9633;50.980;13.850;2023-08-30T05:29:20;4.30;;;3.90;;
18999;SDS011;9633;50.980;13.850;2023-08-30T05:30:54;4.20;;;3.30;;
18999;SDS011;9633;50.980;13.850;2023-08-30T05:32:53;3.70;;;3.40;;
18999;SDS011;9633;50.980;13.850;2023-08-30T05:35:01;4.50;;;3.30;;
18999;SDS011;9633;50.980;13.850;2023-08-30T05:36:53;5.60;;;3.80;;
18999;SDS011;9633;50.980;13.850;2023-08-30T05:38:33;4.37;;;3.97;;
18999;SDS011;9633;50.980;13.850;2023-08-30T05:40:13;3.70;;;3.40;;
18999;SDS011;9633;50.980;13.850;2023-08-30T05:41:48;4.07;;;3.67;;
18999;SDS011;9633;50.980;13.850;2023-08-30T05:43:20;4.53;;;4.13;;
18999;SDS011;9633;50.980;13.850;2023-08-30T05:44:54;3.90;;;3.60;;
18999;SDS011;9633;50.980;13.850;2023-08-30T05:46:27;4.87;;;3.83;;
18999;SDS011;9633;50.980;13.850;2023-08-30T05:48:00;5.40;;;3.43;;
18999;SDS011;9633;50.980;13.850;2023-08-30T05:49:34;3.93;;;3.30;;
18999;SDS011;9633;50.980;13.850;2023-08-30T05:51:08;4.07;;;3.37;;
18999;SDS011;9633;50.980;13.850;2023-08-30T05:52:43;4.47;;;3.50;;
18999;SDS011;9633;50.980;13.850;2023-08-30T05:54:16;3.60;;;3.33;;
18999;SDS011;9633;50.980;13.850;2023-08-30T05:55:49;3.90;;;3.50;;
18999;SDS011;9633;50.980;13.850;2023-08-30T05:57:21;4.67;;;3.73;;
18999;SDS011;9633;50.980;13.850;2023-08-30T05:58:56;3.80;;;3.47;;
18999;SDS011;9633;50.980;13.850;2023-08-30T06:00:30;3.37;;;3.03;;
18999;SDS011;9633;50.980;13.850;2023-08-30T06:02:02;3.70;;;3.40;;
18999;SDS011;9633;50.980;13.850;2023-08-30T06:03:36;5.23;;;3.60;;
18999;SDS011;9633;50.980;13.850;2023-08-30T06:05:08;3.90;;;3.30;;
18999;SDS011;9633;50.980;13.850;2023-08-30T06:06:42;3.90;;;3.43;;
18999;SDS011;9633;50.980;13.850;2023-08-30T06:08:16;3.43;;;3.20;;
18999;SDS011;9633;50.980;13.850;2023-08-30T06:09:49;3.63;;;3.30;;
18999;SDS011;9633;50.980;13.850;2023-08-30T06:11:22;4.47;;;3.80;;
18999;SDS011;9633;50.980;13.850;2023-08-30T06:12:54;4.27;;;3.53;;
18999;SDS011;9633;50.980;13.850;2023-08-30T06:14:28;4.50;;;3.87;;
18999;SDS011;9633;50.980;13.850;2023-08-30T06:16:00;3.57;;;3.27;;
18999;SDS011;9633;50.980;13.850;2023-08-30T06:17:34;4.27;;;3.83;;
18999;SDS011;9633;50.980;13.850;2023-08-30T06:19:07;4.30;;;3.73;;
18999;SDS011;9633;50.980;13.850;2023-08-30T06:20:40;3.93;;;3.53;;
18999;SDS011;9633;50.980;13.850;2023-08-30T06:22:14;4.40;;;3.77;;
18999;SDS011;9633;50.980;13.850;2023-08-30T06:23:47;4.07;;;3.20;;
18999;SDS011;9633;50.980;13.850;2023-08-30T06:25:21;6.03;;;3.60;;
18999;SDS011;9633;50.980;13.850;2023-08-30T06:26:55;5.10;;;3.73;;
18999;SDS011;9633;50.980;13.850;2023-08-30T06:28:28;4.20;;;3.30;;
18999;SDS011;9633;50.980;13.850;2023-08-30T06:30:00;3.90;;;3.53;;
18999;SDS011;9633;50.980;13.850;2023-08-30T06:31:34;4.73;;;3.13;;
18999;SDS011;9633;50.980;13.850;2023-08-30T06:33:08;4.23;;;3.47;;
18999;SDS011;9633;50.980;13.850;2023-08-30T06:34:40;5.47;;;3.30;;
18999;SDS011;9633;50.980;13.850;2023-08-30T06:36:14;5.07;;;3.50;;
18999;SDS011;9633;50.980;13.850;2023-08-30T06:37:47;4.97;;;3.60;;
18999;SDS011;9633;50.980;13.850;2023-08-30T06:39:21;4.50;;;3.60;;
18999;SDS011;9633;50.980;13.850;2023-08-30T06:40:57;6.30;;;3.73;;
18999;SDS011;9633;50.980;13.850;2023-08-30T06:42:29;4.47;;;3.43;;
18999;SDS011;9633;50.980;13.850;2023-08-30T06:44:02;3.87;;;3.40;;
18999;SDS011;9633;50.980;13.850;2023-08-30T06:45:35;4.57;;;3.17;;
18999;SDS011;9633;50.980;13.850;2023-08-30T06:47:09;5.47;;;3.37;;
18999;SDS011;9633;50.980;13.850;2023-08-30T06:48:44;5.37;;;3.50;;
18999;SDS011;9633;50.980;13.850;2023-08-30T06:50:18;3.83;;;3.37;;
18999;SDS011;9633;50.980;13.850;2023-08-30T06:51:51;4.67;;;3.20;;
18999;SDS011;9633;50.980;13.850;2023-08-30T06:53:23;4.57;;;3.10;;
18999;SDS011;9633;50.980;13.850;2023-08-30T06:54:58;6.27;;;3.33;;
18999;SDS011;9633;50.980;13.850;2023-08-30T06:56:31;5.93;;;3.10;;
18999;SDS011;9633;50.980;13.850;2023-08-30T06:58:04;4.83;;;3.37;;
18999;SDS011;9633;50.980;13.850;2023-08-30T06:59:37;3.73;;;3.10;;
18999;SDS011;9633;50.980;13.850;2023-08-30T07:01:10;5.47;;;3.13;;
18999;SDS011;9633;50.980;13.850;2023-08-30T07:02:42;5.33;;;3.13;;
18999;SDS011;9633;50.980;13.850;2023-08-30T07:04:17;5.93;;;3.80;;
18999;SDS011;9633;50.980;13.850;2023-08-30T07:05:50;5.60;;;4.23;;
18999;SDS011;9633;50.980;13.850;2023-08-30T07:07:23;6.40;;;3.80;;
18999;SDS011;9633;50.980;13.850;2023-08-30T07:08:56;6.30;;;4.40;;
18999;SDS011;9633;50.980;13.850;2023-08-30T07:10:30;4.30;;;3.90;;
18999;SDS011;9633;50.980;13.850;2023-08-30T07:12:05;5.60;;;4.10;;
18999;SDS011;9633;50.980;13.850;2023-08-30T07:13:38;5.50;;;4.20;;
18999;SDS011;9633;50.980;13.850;2023-08-30T07:15:11;7.60;;;4.43;;
18999;SDS011;9633;50.980;13.850;2023-08-30T07:16:44;5.30;;;4.43;;
18999;SDS011;9633;50.980;13.850;2023-08-30T07:18:17;5.13;;;4.50;;
18999;SDS011;9633;50.980;13.850;2023-08-30T07:19:49;5.23;;;4.67;;
18999;SDS011;9633;50.980;13.850;2023-08-30T07:21:22;5.13;;;4.70;;
18999;SDS011;9633;50.980;13.850;2023-08-30T07:22:55;5.37;;;4.87;;
18999;SDS011;9633;50.980;13.850;2023-08-30T07:24:28;5.47;;;4.90;;
18999;SDS011;9633;50.980;13.850;2023-08-30T07:26:01;5.37;;;4.87;;
18999;SDS011;9633;50.980;13.850;2023-08-30T07:27:35;6.13;;;4.80;;
18999;SDS011;9633;50.980;13.850;2023-08-30T07:29:08;5.73;;;4.83;;
18999;SDS011;9633;50.980;13.850;2023-08-30T07:30:42;6.90;;;5.13;;
18999;SDS011;9633;50.980;13.850;2023-08-30T07:32:14;7.10;;;5.47;;
18999;SDS011;9633;50.980;13.850;2023-08-30T07:33:47;9.33;;;6.17;;
18999;SDS011;9633;50.980;13.850;2023-08-30T07:35:19;9.10;;;5.97;;
18999;SDS011;9633;50.980;13.850;2023-08-30T07:36:54;8.13;;;6.10;;
18999;SDS011;9633;50.980;13.850;2023-08-30T07:38:27;7.73;;;6.00;;
18999;SDS011;9633;50.980;13.850;2023-08-30T07:40:00;6.40;;;5.80;;
18999;SDS011;9633;50.980;13.850;2023-08-30T07:41:37;7.23;;;6.57;;
18999;SDS011;9633;50.980;13.850;2023-08-30T07:43:09;9.67;;;6.83;;
18999;SDS011;9633;50.980;13.850;2023-08-30T07:44:42;8.77;;;6.90;;
18999;SDS011;9633;50.980;13.850;2023-08-30T07:46:15;7.60;;;6.83;;
18999;SDS011;9633;50.980;13.850;2023-08-30T07:47:48;8.00;;;7.20;;
18999;SDS011;9633;50.980;13.850;2023-08-30T07:49:21;8.17;;;6.50;;
18999;SDS011;9633;50.980;13.850;2023-08-30T07:50:54;7.67;;;6.87;;
18999;SDS011;9633;50.980;13.850;2023-08-30T07:52:28;8.00;;;6.87;;
18999;SDS011;9633;50.980;13.850;2023-08-30T07:54:16;9.67;;;6.63;;
18999;SDS011;9633;50.980;13.850;2023-08-30T07:55:49;8.23;;;6.80;;
18999;SDS011;9633;50.980;13.850;2023-08-30T07:57:23;7.97;;;7.17;;
18999;SDS011;9633;50.980;13.850;2023-08-30T07:58:56;7.53;;;6.50;;
18999;SDS011;9633;50.980;13.850;2023-08-30T08:00:28;9.57;;;7.13;;
18999;SDS011;9633;50.980;13.850;2023-08-30T08:02:02;6.90;;;6.20;;
18999;SDS011;9633;50.980;13.850;2023-08-30T08:03:38;6.70;;;6.00;;
18999;SDS011;9633;50.980;13.850;2023-08-30T08:05:26;6.63;;;6.03;;
18999;SDS011;9633;50.980;13.850;2023-08-30T08:06:59;7.63;;;6.30;;
18999;SDS011;9633;50.980;13.850;2023-08-30T08:08:32;7.20;;;6.50;;
18999;SDS011;9633;50.980;13.850;2023-08-30T08:10:06;6.97;;;6.07;;
18999;SDS011;9633;50.980;13.850;2023-08-30T08:11:41;6.70;;;6.10;;
18999;SDS011;9633;50.980;13.850;2023-08-30T08:13:16;6.63;;;5.77;;
18999;SDS011;9633;50.980;13.850;2023-08-30T08:14:49;6.63;;;5.83;;
18999;SDS011;9633;50.980;13.850;2023-08-30T08:16:21;6.63;;;5.93;;
18999;SDS011;9633;50.980;13.850;2023-08-30T08:17:55;8.03;;;6.60;;
18999;SDS011;9633;50.980;13.850;2023-08-30T08:19:27;7.93;;;6.17;;
18999;SDS011;9633;50.980;13.850;2023-08-30T08:21:00;8.27;;;6.37;;
18999;SDS011;9633;50.980;13.850;2023-08-30T08:22:32;6.77;;;6.07;;
18999;SDS011;9633;50.980;13.850;2023-08-30T08:24:06;6.77;;;5.80;;
18999;SDS011;9633;50.980;13.850;2023-08-30T08:25:38;6.93;;;4.87;;
18999;SDS011;9633;50.980;13.850;2023-08-30T08:27:11;8.30;;;4.80;;
18999;SDS011;9633;50.980;13.850;2023-08-30T08:28:45;5.57;;;4.97;;
18999;SDS011;9633;50.980;13.850;2023-08-30T08:30:22;5.00;;;4.00;;
18999;SDS011;9633;50.980;13.850;2023-08-30T08:31:55;4.70;;;3.87;;
18999;SDS011;9633;50.980;13.850;2023-08-30T08:33:27;4.93;;;3.83;;
18999;SDS011;9633;50.980;13.850;2023-08-30T08:35:01;4.60;;;4.00;;
18999;SDS011;9633;50.980;13.850;2023-08-30T08:36:34;3.90;;;3.50;;
18999;SDS011;9633;50.980;13.850;2023-08-30T08:38:07;4.00;;;3.30;;
18999;SDS011;9633;50.980;13.850;2023-08-30T08:39:41;3.47;;;2.80;;
18999;SDS011;9633;50.980;13.850;2023-08-30T08:41:14;5.77;;;3.10;;
18999;SDS011;9633;50.980;13.850;2023-08-30T08:42:49;6.97;;;2.73;;
18999;SDS011;9633;50.980;13.850;2023-08-30T08:44:23;3.77;;;2.70;;
18999;SDS011;9633;50.980;13.850;2023-08-30T08:46:03;2.83;;;2.60;;
18999;SDS011;9633;50.980;13.850;2023-08-30T08:47:37;5.67;;;3.30;;
18999;SDS011;9633;50.980;13.850;2023-08-30T08:49:11;4.47;;;2.90;;
18999;SDS011;9633;50.980;13.850;2023-08-30T08:50:45;5.57;;;2.67;;
18999;SDS011;9633;50.980;13.850;2023-08-30T08:52:19;3.10;;;2.80;;
18999;SDS011;9633;50.980;13.850;2023-08-30T08:54:04;3.87;;;3.07;;
18999;SDS011;9633;50.980;13.850;2023-08-30T08:55:40;2.90;;;2.70;;
18999;SDS011;9633;50.980;13.850;2023-08-30T08:57:15;3.40;;;2.67;;
18999;SDS011;9633;50.980;13.850;2023-08-30T08:58:48;3.23;;;2.77;;
18999;SDS011;9633;50.980;13.850;2023-08-30T09:00:23;3.30;;;2.87;;
18999;SDS011;9633;50.980;13.850;2023-08-30T09:01:56;3.20;;;2.50;;
18999;SDS011;9633;50.980;13.850;2023-08-30T09:03:29;3.70;;;2.87;;
18999;SDS011;9633;50.980;13.850;2023-08-30T09:05:02;3.10;;;2.67;;
18999;SDS011;9633;50.980;13.850;2023-08-30T09:06:37;4.03;;;2.20;;
18999;SDS011;9633;50.980;13.850;2023-08-30T09:08:11;3.47;;;2.47;;
18999;SDS011;9633;50.980;13.850;2023-08-30T09:09:45;4.43;;;2.97;;
18999;SDS011;9633;50.980;13.850;2023-08-30T09:11:18;4.00;;;2.33;;
18999;SDS011;9633;50.980;13.850;2023-08-30T09:13:00;2.60;;;2.40;;
18999;SDS011;9633;50.980;13.850;2023-08-30T09:14:33;5.00;;;2.70;;
18999;SDS011;9633;50.980;13.850;2023-08-30T09:16:12;4.30;;;3.20;;
18999;SDS011;9633;50.980;13.850;2023-08-30T09:17:46;3.83;;;2.70;;
18999;SDS011;9633;50.980;13.850;2023-08-30T09:19:20;3.20;;;2.90;;
18999;SDS011;9633;50.980;13.850;2023-08-30T09:21:04;2.87;;;2.47;;
18999;SDS011;9633;50.980;13.850;2023-08-30T09:22:38;2.87;;;2.60;;
18999;SDS011;9633;50.980;13.850;2023-08-30T09:24:11;3.73;;;2.70;;
18999;SDS011;9633;50.980;13.850;2023-08-30T09:25:44;3.63;;;2.50;;
18999;SDS011;9633;50.980;13.850;2023-08-30T09:27:17;3.57;;;2.53;;